Terminal Aerodrome Forecast
Issued by NWS Denver/Boulder, CO

Home | Current Version | Previous Version | Text Only | Print | Product List | Glossary On
Versions: 1 2 3 4 5 6 7 8 9 10 11 12 13 14 15 16 17 18 19 20 21 22 23 24 25 26 27 28 29 30 31 32 33 34 35 36 37 38 39 40 41 42 43 44 45 46 47 48 49 50
346
FTUS45 KBOU 192304 AAF
TAFDEN
TAF AMD
KDEN 192304Z 1923/2024 36015G25KT P6SM FEW100 SCT140 SCT220
     FM200000 02022G33KT 6SM BLDU SCT080 SCT120
     FM200200 06010KT P6SM SCT080 SCT120
     FM200900 15010KT P6SM SCT120
     FM201900 17015KT P6SM FEW120 SCT200=

USA.gov is the U.S. government's official web portal to all federal, state and local government web resources and services.